sensor_id;sensor_type;location;lat;lon;timestamp;temperature;humidity
2907;DHT22;1463;51.070;16.998;2022-07-06T00:01:56;19.50;99.90
2907;DHT22;1463;51.070;16.998;2022-07-06T00:04:23;19.50;99.90
2907;DHT22;1463;51.070;16.998;2022-07-06T00:06:52;19.50;99.90
2907;DHT22;1463;51.070;16.998;2022-07-06T00:09:21;19.50;99.90
2907;DHT22;1463;51.070;16.998;2022-07-06T00:11:48;19.40;99.90
2907;DHT22;1463;51.070;16.998;2022-07-06T00:14:15;19.50;99.90
2907;DHT22;1463;51.070;16.998;2022-07-06T00:16:44;19.50;99.90
2907;DHT22;1463;51.070;16.998;2022-07-06T00:19:11;19.50;99.90
2907;DHT22;1463;51.070;16.998;2022-07-06T00:21:39;19.50;99.90
2907;DHT22;1463;51.070;16.998;2022-07-06T00:24:06;19.50;99.90
2907;DHT22;1463;51.070;16.998;2022-07-06T00:26:33;19.40;99.90
2907;DHT22;1463;51.070;16.998;2022-07-06T00:29:00;19.40;99.90
2907;DHT22;1463;51.070;16.998;2022-07-06T00:31:28;19.40;99.90
2907;DHT22;1463;51.070;16.998;2022-07-06T00:33:57;19.40;99.90
2907;DHT22;1463;51.070;16.998;2022-07-06T00:36:24;19.30;99.90
2907;DHT22;1463;51.070;16.998;2022-07-06T00:38:51;19.30;99.90
2907;DHT22;1463;51.070;16.998;2022-07-06T00:41:19;19.30;99.90
2907;DHT22;1463;51.070;16.998;2022-07-06T00:43:47;19.30;99.90
2907;DHT22;1463;51.070;16.998;2022-07-06T00:46:14;19.30;99.90
2907;DHT22;1463;51.070;16.998;2022-07-06T00:48:41;19.20;99.90
2907;DHT22;1463;51.070;16.998;2022-07-06T00:51:11;19.20;99.90
2907;DHT22;1463;51.070;16.998;2022-07-06T00:53:39;19.20;99.90
2907;DHT22;1463;51.070;16.998;2022-07-06T00:56:08;19.10;99.90
2907;DHT22;1463;51.070;16.998;2022-07-06T00:58:35;19.10;99.90
2907;DHT22;1463;51.070;16.998;2022-07-06T01:01:03;19.20;99.90
2907;DHT22;1463;51.070;16.998;2022-07-06T01:03:30;19.10;99.90
2907;DHT22;1463;51.070;16.998;2022-07-06T01:05:57;19.00;99.90
2907;DHT22;1463;51.070;16.998;2022-07-06T01:08:28;18.90;99.90
2907;DHT22;1463;51.070;16.998;2022-07-06T01:10:55;18.90;99.90
2907;DHT22;1463;51.070;16.998;2022-07-06T01:13:23;18.90;99.90
2907;DHT22;1463;51.070;16.998;2022-07-06T01:15:52;18.80;99.90
2907;DHT22;1463;51.070;16.998;2022-07-06T01:18:20;18.90;99.90
2907;DHT22;1463;51.070;16.998;2022-07-06T01:20:49;18.80;99.90
2907;DHT22;1463;51.070;16.998;2022-07-06T01:23:16;18.80;99.90
2907;DHT22;1463;51.070;16.998;2022-07-06T01:25:43;18.80;99.90
2907;DHT22;1463;51.070;16.998;2022-07-06T01:28:11;18.80;99.90
2907;DHT22;1463;51.070;16.998;2022-07-06T01:30:38;18.90;99.90
2907;DHT22;1463;51.070;16.998;2022-07-06T01:33:05;18.90;99.90
2907;DHT22;1463;51.070;16.998;2022-07-06T01:35:32;18.90;99.90
2907;DHT22;1463;51.070;16.998;2022-07-06T01:38:01;18.80;99.90
2907;DHT22;1463;51.070;16.998;2022-07-06T01:40:28;18.80;99.90
2907;DHT22;1463;51.070;16.998;2022-07-06T01:42:56;18.70;99.90
2907;DHT22;1463;51.070;16.998;2022-07-06T01:45:23;18.70;99.90
2907;DHT22;1463;51.070;16.998;2022-07-06T01:47:51;18.70;99.90
2907;DHT22;1463;51.070;16.998;2022-07-06T01:50:18;18.60;99.90
2907;DHT22;1463;51.070;16.998;2022-07-06T01:52:45;18.60;99.90
2907;DHT22;1463;51.070;16.998;2022-07-06T01:55:14;18.70;99.90
2907;DHT22;1463;51.070;16.998;2022-07-06T01:57:41;18.60;99.90
2907;DHT22;1463;51.070;16.998;2022-07-06T02:00:08;18.50;99.90
2907;DHT22;1463;51.070;16.998;2022-07-06T02:02:35;18.50;99.90
2907;DHT22;1463;51.070;16.998;2022-07-06T02:05:03;18.50;99.90
2907;DHT22;1463;51.070;16.998;2022-07-06T02:07:30;18.50;99.90
2907;DHT22;1463;51.070;16.998;2022-07-06T02:09:57;18.40;99.90
2907;DHT22;1463;51.070;16.998;2022-07-06T02:12:26;18.50;99.90
2907;DHT22;1463;51.070;16.998;2022-07-06T02:14:58;18.50;99.90
2907;DHT22;1463;51.070;16.998;2022-07-06T02:17:25;18.50;99.90
2907;DHT22;1463;51.070;16.998;2022-07-06T02:19:53;18.50;99.90
2907;DHT22;1463;51.070;16.998;2022-07-06T02:22:21;18.50;99.90
2907;DHT22;1463;51.070;16.998;2022-07-06T02:24:49;18.50;99.90
2907;DHT22;1463;51.070;16.998;2022-07-06T02:27:16;18.60;99.90
2907;DHT22;1463;51.070;16.998;2022-07-06T02:29:46;18.40;99.90
2907;DHT22;1463;51.070;16.998;2022-07-06T02:32:13;18.30;99.90
2907;DHT22;1463;51.070;16.998;2022-07-06T02:34:41;18.30;99.90
2907;DHT22;1463;51.070;16.998;2022-07-06T02:37:10;18.30;99.90
2907;DHT22;1463;51.070;16.998;2022-07-06T02:39:37;18.20;99.90
2907;DHT22;1463;51.070;16.998;2022-07-06T02:42:05;18.20;99.90
2907;DHT22;1463;51.070;16.998;2022-07-06T02:44:34;18.30;99.90
2907;DHT22;1463;51.070;16.998;2022-07-06T02:47:08;18.20;99.90
2907;DHT22;1463;51.070;16.998;2022-07-06T02:49:35;18.10;99.90
2907;DHT22;1463;51.070;16.998;2022-07-06T02:52:02;18.10;99.90
2907;DHT22;1463;51.070;16.998;2022-07-06T02:54:29;18.20;99.90
2907;DHT22;1463;51.070;16.998;2022-07-06T02:56:56;18.20;99.90
2907;DHT22;1463;51.070;16.998;2022-07-06T02:59:24;18.30;99.90
2907;DHT22;1463;51.070;16.998;2022-07-06T03:01:51;18.30;99.90
2907;DHT22;1463;51.070;16.998;2022-07-06T03:04:20;18.20;99.90
2907;DHT22;1463;51.070;16.998;2022-07-06T03:06:49;18.20;99.90
2907;DHT22;1463;51.070;16.998;2022-07-06T03:09:17;18.20;99.90
2907;DHT22;1463;51.070;16.998;2022-07-06T03:11:44;18.20;99.90
2907;DHT22;1463;51.070;16.998;2022-07-06T03:14:12;18.20;99.90
2907;DHT22;1463;51.070;16.998;2022-07-06T03:16:39;18.20;99.90
2907;DHT22;1463;51.070;16.998;2022-07-06T03:19:06;18.20;99.90
2907;DHT22;1463;51.070;16.998;2022-07-06T03:21:35;18.20;99.90
2907;DHT22;1463;51.070;16.998;2022-07-06T03:24:03;18.30;99.90
2907;DHT22;1463;51.070;16.998;2022-07-06T03:26:30;18.30;99.90
2907;DHT22;1463;51.070;16.998;2022-07-06T03:28:58;18.30;99.90
2907;DHT22;1463;51.070;16.998;2022-07-06T03:31:25;18.30;99.90
2907;DHT22;1463;51.070;16.998;2022-07-06T03:33:52;18.30;99.90
2907;DHT22;1463;51.070;16.998;2022-07-06T03:36:19;18.40;99.90
2907;DHT22;1463;51.070;16.998;2022-07-06T03:38:48;18.40;99.90
2907;DHT22;1463;51.070;16.998;2022-07-06T03:41:15;18.30;99.90
2907;DHT22;1463;51.070;16.998;2022-07-06T03:43:43;18.40;99.90
2907;DHT22;1463;51.070;16.998;2022-07-06T03:46:10;18.40;99.90
2907;DHT22;1463;51.070;16.998;2022-07-06T03:48:37;18.30;99.90
2907;DHT22;1463;51.070;16.998;2022-07-06T03:51:04;18.30;99.90
2907;DHT22;1463;51.070;16.998;2022-07-06T03:53:31;18.30;99.90
2907;DHT22;1463;51.070;16.998;2022-07-06T03:56:00;18.30;99.90
2907;DHT22;1463;51.070;16.998;2022-07-06T03:58:44;18.30;99.90
2907;DHT22;1463;51.070;16.998;2022-07-06T04:01:11;18.40;99.90
2907;DHT22;1463;51.070;16.998;2022-07-06T04:03:38;18.40;99.90
2907;DHT22;1463;51.070;16.998;2022-07-06T04:06:05;18.40;99.90
2907;DHT22;1463;51.070;16.998;2022-07-06T04:08:33;18.40;99.90
2907;DHT22;1463;51.070;16.998;2022-07-06T04:11:01;18.40;99.90
2907;DHT22;1463;51.070;16.998;2022-07-06T04:13:28;18.50;99.90
2907;DHT22;1463;51.070;16.998;2022-07-06T04:15:55;18.50;99.90
2907;DHT22;1463;51.070;16.998;2022-07-06T04:18:23;18.50;99.90
2907;DHT22;1463;51.070;16.998;2022-07-06T04:20:50;18.50;99.90
2907;DHT22;1463;51.070;16.998;2022-07-06T04:23:18;18.50;99.90
2907;DHT22;1463;51.070;16.998;2022-07-06T04:25:45;18.50;99.90
2907;DHT22;1463;51.070;16.998;2022-07-06T04:28:13;18.50;99.90
2907;DHT22;1463;51.070;16.998;2022-07-06T04:30:41;18.50;99.90
2907;DHT22;1463;51.070;16.998;2022-07-06T04:33:08;18.50;99.90
2907;DHT22;1463;51.070;16.998;2022-07-06T04:35:35;18.40;99.90
2907;DHT22;1463;51.070;16.998;2022-07-06T04:38:02;18.40;99.90
2907;DHT22;1463;51.070;16.998;2022-07-06T04:40:30;18.20;99.90
2907;DHT22;1463;51.070;16.998;2022-07-06T04:42:58;18.10;99.90
2907;DHT22;1463;51.070;16.998;2022-07-06T04:47:55;18.00;99.90
2907;DHT22;1463;51.070;16.998;2022-07-06T04:50:23;18.00;99.90
2907;DHT22;1463;51.070;16.998;2022-07-06T04:52:51;17.90;99.90
2907;DHT22;1463;51.070;16.998;2022-07-06T04:55:18;18.00;99.90
2907;DHT22;1463;51.070;16.998;2022-07-06T04:57:45;18.10;99.90
2907;DHT22;1463;51.070;16.998;2022-07-06T05:00:13;18.00;99.90
2907;DHT22;1463;51.070;16.998;2022-07-06T05:02:40;17.90;99.90
2907;DHT22;1463;51.070;16.998;2022-07-06T05:05:09;17.80;99.90
2907;DHT22;1463;51.070;16.998;2022-07-06T05:07:36;17.70;99.90
2907;DHT22;1463;51.070;16.998;2022-07-06T05:10:06;17.60;99.90
2907;DHT22;1463;51.070;16.998;2022-07-06T05:12:33;17.50;99.90
2907;DHT22;1463;51.070;16.998;2022-07-06T05:15:00;17.40;99.90
2907;DHT22;1463;51.070;16.998;2022-07-06T05:17:27;17.50;99.90
2907;DHT22;1463;51.070;16.998;2022-07-06T05:19:54;17.40;99.90
2907;DHT22;1463;51.070;16.998;2022-07-06T05:22:26;17.30;99.90
2907;DHT22;1463;51.070;16.998;2022-07-06T05:24:53;17.40;99.90
2907;DHT22;1463;51.070;16.998;2022-07-06T05:27:20;17.40;99.90
2907;DHT22;1463;51.070;16.998;2022-07-06T05:29:48;17.40;99.90
2907;DHT22;1463;51.070;16.998;2022-07-06T05:32:16;17.40;99.90
2907;DHT22;1463;51.070;16.998;2022-07-06T05:34:43;17.50;99.90
2907;DHT22;1463;51.070;16.998;2022-07-06T05:37:10;17.50;99.90
2907;DHT22;1463;51.070;16.998;2022-07-06T05:39:38;17.40;99.90
2907;DHT22;1463;51.070;16.998;2022-07-06T05:42:09;17.40;99.90
2907;DHT22;1463;51.070;16.998;2022-07-06T05:44:36;17.40;99.90
2907;DHT22;1463;51.070;16.998;2022-07-06T05:47:03;17.40;99.90
2907;DHT22;1463;51.070;16.998;2022-07-06T05:49:52;17.40;99.90
2907;DHT22;1463;51.070;16.998;2022-07-06T05:52:37;17.50;99.90
2907;DHT22;1463;51.070;16.998;2022-07-06T05:55:10;17.50;99.90
2907;DHT22;1463;51.070;16.998;2022-07-06T05:57:39;17.50;99.90
2907;DHT22;1463;51.070;16.998;2022-07-06T06:00:07;17.50;99.90
2907;DHT22;1463;51.070;16.998;2022-07-06T06:02:38;17.50;99.90
2907;DHT22;1463;51.070;16.998;2022-07-06T06:05:07;17.40;99.90
2907;DHT22;1463;51.070;16.998;2022-07-06T06:07:35;17.50;99.90
2907;DHT22;1463;51.070;16.998;2022-07-06T06:10:03;17.60;99.90
2907;DHT22;1463;51.070;16.998;2022-07-06T06:12:37;17.60;99.90
2907;DHT22;1463;51.070;16.998;2022-07-06T06:15:10;17.70;99.90
2907;DHT22;1463;51.070;16.998;2022-07-06T06:17:45;17.70;99.90
2907;DHT22;1463;51.070;16.998;2022-07-06T06:20:23;17.70;99.90
2907;DHT22;1463;51.070;16.998;2022-07-06T06:23:02;17.80;99.90
2907;DHT22;1463;51.070;16.998;2022-07-06T06:25:31;17.80;99.90
2907;DHT22;1463;51.070;16.998;2022-07-06T06:28:01;17.80;99.90
2907;DHT22;1463;51.070;16.998;2022-07-06T06:30:29;17.90;99.90
2907;DHT22;1463;51.070;16.998;2022-07-06T06:33:05;18.00;99.90
2907;DHT22;1463;51.070;16.998;2022-07-06T06:35:33;18.10;99.90
2907;DHT22;1463;51.070;16.998;2022-07-06T06:38:01;18.10;99.90
2907;DHT22;1463;51.070;16.998;2022-07-06T06:40:30;18.10;99.90
2907;DHT22;1463;51.070;16.998;2022-07-06T06:42:58;18.10;99.90
2907;DHT22;1463;51.070;16.998;2022-07-06T06:45:30;18.10;99.90
2907;DHT22;1463;51.070;16.998;2022-07-06T06:47:59;18.10;99.90
2907;DHT22;1463;51.070;16.998;2022-07-06T06:50:27;18.00;99.90
2907;DHT22;1463;51.070;16.998;2022-07-06T06:52:55;18.10;99.90
2907;DHT22;1463;51.070;16.998;2022-07-06T06:55:23;18.00;99.90
2907;DHT22;1463;51.070;16.998;2022-07-06T06:57:51;18.00;99.90
2907;DHT22;1463;51.070;16.998;2022-07-06T07:00:19;18.10;99.90
2907;DHT22;1463;51.070;16.998;2022-07-06T07:02:48;18.20;99.90
2907;DHT22;1463;51.070;16.998;2022-07-06T07:05:16;18.30;99.90
2907;DHT22;1463;51.070;16.998;2022-07-06T07:07:44;18.40;99.90
2907;DHT22;1463;51.070;16.998;2022-07-06T07:10:12;18.40;99.90
2907;DHT22;1463;51.070;16.998;2022-07-06T07:12:43;18.40;99.90
2907;DHT22;1463;51.070;16.998;2022-07-06T07:15:11;18.50;99.90
2907;DHT22;1463;51.070;16.998;2022-07-06T07:17:39;18.50;99.90
2907;DHT22;1463;51.070;16.998;2022-07-06T07:20:09;18.50;99.90
2907;DHT22;1463;51.070;16.998;2022-07-06T07:22:36;18.60;99.90
2907;DHT22;1463;51.070;16.998;2022-07-06T07:25:04;18.70;99.90
2907;DHT22;1463;51.070;16.998;2022-07-06T07:27:31;18.80;99.90
2907;DHT22;1463;51.070;16.998;2022-07-06T07:29:58;18.90;99.90
2907;DHT22;1463;51.070;16.998;2022-07-06T07:32:25;19.00;99.90
2907;DHT22;1463;51.070;16.998;2022-07-06T07:34:52;19.10;99.90
2907;DHT22;1463;51.070;16.998;2022-07-06T07:37:21;19.10;99.90
2907;DHT22;1463;51.070;16.998;2022-07-06T07:39:48;19.20;99.90
2907;DHT22;1463;51.070;16.998;2022-07-06T07:42:15;19.30;99.90
2907;DHT22;1463;51.070;16.998;2022-07-06T07:44:43;19.50;99.90
2907;DHT22;1463;51.070;16.998;2022-07-06T07:47:10;19.60;99.90
2907;DHT22;1463;51.070;16.998;2022-07-06T07:49:38;19.70;99.90
2907;DHT22;1463;51.070;16.998;2022-07-06T07:52:06;19.80;99.90
2907;DHT22;1463;51.070;16.998;2022-07-06T07:54:34;19.90;99.90
2907;DHT22;1463;51.070;16.998;2022-07-06T07:57:02;20.00;99.90
2907;DHT22;1463;51.070;16.998;2022-07-06T07:59:30;20.00;99.90
2907;DHT22;1463;51.070;16.998;2022-07-06T08:01:57;20.10;99.90
2907;DHT22;1463;51.070;16.998;2022-07-06T08:04:25;20.20;99.90
2907;DHT22;1463;51.070;16.998;2022-07-06T08:06:53;20.30;99.90
2907;DHT22;1463;51.070;16.998;2022-07-06T08:09:22;20.40;99.90
2907;DHT22;1463;51.070;16.998;2022-07-06T08:17:54;20.70;99.90
2907;DHT22;1463;51.070;16.998;2022-07-06T08:20:21;20.80;99.90
2907;DHT22;1463;51.070;16.998;2022-07-06T08:22:48;20.90;99.90
2907;DHT22;1463;51.070;16.998;2022-07-06T08:25:16;20.90;99.90
2907;DHT22;1463;51.070;16.998;2022-07-06T08:27:43;21.00;99.90
2907;DHT22;1463;51.070;16.998;2022-07-06T08:30:14;21.10;99.90
2907;DHT22;1463;51.070;16.998;2022-07-06T08:32:42;21.20;99.90
2907;DHT22;1463;51.070;16.998;2022-07-06T08:35:28;21.20;99.90
2907;DHT22;1463;51.070;16.998;2022-07-06T08:38:17;21.40;99.90
2907;DHT22;1463;51.070;16.998;2022-07-06T08:41:15;21.40;99.90
2907;DHT22;1463;51.070;16.998;2022-07-06T08:43:44;21.50;99.90
2907;DHT22;1463;51.070;16.998;2022-07-06T08:46:12;21.60;99.90
2907;DHT22;1463;51.070;16.998;2022-07-06T08:48:41;21.70;99.90
2907;DHT22;1463;51.070;16.998;2022-07-06T08:51:13;21.80;99.90
2907;DHT22;1463;51.070;16.998;2022-07-06T08:53:41;21.80;99.90
2907;DHT22;1463;51.070;16.998;2022-07-06T08:56:09;22.00;99.90
2907;DHT22;1463;51.070;16.998;2022-07-06T08:58:40;22.00;99.90
2907;DHT22;1463;51.070;16.998;2022-07-06T09:01:07;22.10;99.90
2907;DHT22;1463;51.070;16.998;2022-07-06T09:03:35;22.10;99.90
2907;DHT22;1463;51.070;16.998;2022-07-06T09:06:03;22.30;99.90
2907;DHT22;1463;51.070;16.998;2022-07-06T09:08:33;22.30;99.90
2907;DHT22;1463;51.070;16.998;2022-07-06T09:11:02;22.40;99.90
2907;DHT22;1463;51.070;16.998;2022-07-06T09:13:32;22.40;99.90
2907;DHT22;1463;51.070;16.998;2022-07-06T09:16:09;22.50;99.90
2907;DHT22;1463;51.070;16.998;2022-07-06T09:18:42;22.60;99.90
2907;DHT22;1463;51.070;16.998;2022-07-06T09:21:11;22.70;99.90
2907;DHT22;1463;51.070;16.998;2022-07-06T09:23:41;22.70;99.90
2907;DHT22;1463;51.070;16.998;2022-07-06T09:26:10;22.70;99.90
2907;DHT22;1463;51.070;16.998;2022-07-06T09:28:41;22.70;99.90
2907;DHT22;1463;51.070;16.998;2022-07-06T09:31:10;22.80;99.90
2907;DHT22;1463;51.070;16.998;2022-07-06T09:33:38;22.80;99.90
2907;DHT22;1463;51.070;16.998;2022-07-06T09:36:06;22.80;99.90
2907;DHT22;1463;51.070;16.998;2022-07-06T09:38:35;23.00;99.90
2907;DHT22;1463;51.070;16.998;2022-07-06T09:41:05;23.00;99.90
2907;DHT22;1463;51.070;16.998;2022-07-06T09:43:33;23.10;99.90
2907;DHT22;1463;51.070;16.998;2022-07-06T09:46:02;23.20;99.90
2907;DHT22;1463;51.070;16.998;2022-07-06T09:48:29;23.30;99.90
2907;DHT22;1463;51.070;16.998;2022-07-06T09:51:00;23.30;99.90
2907;DHT22;1463;51.070;16.998;2022-07-06T09:53:30;23.30;99.90
2907;DHT22;1463;51.070;16.998;2022-07-06T09:55:58;23.40;99.90
2907;DHT22;1463;51.070;16.998;2022-07-06T09:58:29;23.50;99.90
2907;DHT22;1463;51.070;16.998;2022-07-06T10:00:57;23.50;99.90
2907;DHT22;1463;51.070;16.998;2022-07-06T10:03:26;23.60;99.90
2907;DHT22;1463;51.070;16.998;2022-07-06T10:05:54;23.70;99.90
2907;DHT22;1463;51.070;16.998;2022-07-06T10:08:23;23.50;99.90
2907;DHT22;1463;51.070;16.998;2022-07-06T10:10:53;23.50;99.90
2907;DHT22;1463;51.070;16.998;2022-07-06T10:13:22;23.50;99.90
2907;DHT22;1463;51.070;16.998;2022-07-06T10:15:53;23.70;99.90
2907;DHT22;1463;51.070;16.998;2022-07-06T10:18:24;23.80;99.90
2907;DHT22;1463;51.070;16.998;2022-07-06T10:23:41;24.00;97.50
2907;DHT22;1463;51.070;16.998;2022-07-06T10:26:10;24.00;95.30
2907;DHT22;1463;51.070;16.998;2022-07-06T10:28:39;23.90;97.80
2907;DHT22;1463;51.070;16.998;2022-07-06T10:31:09;24.00;95.30
2907;DHT22;1463;51.070;16.998;2022-07-06T10:33:37;24.00;94.30
2907;DHT22;1463;51.070;16.998;2022-07-06T10:36:07;24.00;89.60
2907;DHT22;1463;51.070;16.998;2022-07-06T10:38:35;24.10;90.60
2907;DHT22;1463;51.070;16.998;2022-07-06T10:41:18;24.20;87.90
2907;DHT22;1463;51.070;16.998;2022-07-06T10:43:46;24.30;89.60
2907;DHT22;1463;51.070;16.998;2022-07-06T10:46:16;24.40;91.80
2907;DHT22;1463;51.070;16.998;2022-07-06T10:48:48;24.40;91.50
2907;DHT22;1463;51.070;16.998;2022-07-06T10:51:23;24.40;91.90
2907;DHT22;1463;51.070;16.998;2022-07-06T10:53:55;24.50;92.20
2907;DHT22;1463;51.070;16.998;2022-07-06T10:56:32;24.50;91.50
2907;DHT22;1463;51.070;16.998;2022-07-06T10:59:01;24.50;91.50
2907;DHT22;1463;51.070;16.998;2022-07-06T11:01:31;24.60;90.40
2907;DHT22;1463;51.070;16.998;2022-07-06T11:04:06;24.50;85.60
2907;DHT22;1463;51.070;16.998;2022-07-06T11:06:35;24.50;90.30
2907;DHT22;1463;51.070;16.998;2022-07-06T11:09:04;24.30;85.70
2907;DHT22;1463;51.070;16.998;2022-07-06T11:11:40;24.20;88.40
2907;DHT22;1463;51.070;16.998;2022-07-06T11:14:10;24.00;86.70
2907;DHT22;1463;51.070;16.998;2022-07-06T11:19:32;23.70;90.60
2907;DHT22;1463;51.070;16.998;2022-07-06T11:22:07;23.70;90.10
2907;DHT22;1463;51.070;16.998;2022-07-06T11:24:36;23.70;90.50
2907;DHT22;1463;51.070;16.998;2022-07-06T11:27:05;23.80;90.70
2907;DHT22;1463;51.070;16.998;2022-07-06T11:29:37;23.90;87.80
2907;DHT22;1463;51.070;16.998;2022-07-06T11:32:07;24.00;88.00
2907;DHT22;1463;51.070;16.998;2022-07-06T11:34:40;24.30;87.50
2907;DHT22;1463;51.070;16.998;2022-07-06T11:37:09;24.50;83.70
2907;DHT22;1463;51.070;16.998;2022-07-06T11:39:40;24.70;85.80
2907;DHT22;1463;51.070;16.998;2022-07-06T11:42:09;24.70;89.00
2907;DHT22;1463;51.070;16.998;2022-07-06T11:44:38;24.70;85.60
2907;DHT22;1463;51.070;16.998;2022-07-06T11:47:07;24.30;84.60
2907;DHT22;1463;51.070;16.998;2022-07-06T11:49:37;24.10;84.80
2907;DHT22;1463;51.070;16.998;2022-07-06T11:52:08;23.80;84.90
2907;DHT22;1463;51.070;16.998;2022-07-06T11:54:37;23.70;85.80
2907;DHT22;1463;51.070;16.998;2022-07-06T11:57:07;23.50;88.40
2907;DHT22;1463;51.070;16.998;2022-07-06T11:59:37;23.30;85.30
2907;DHT22;1463;51.070;16.998;2022-07-06T12:02:07;23.10;87.80
2907;DHT22;1463;51.070;16.998;2022-07-06T12:04:36;23.20;89.40
2907;DHT22;1463;51.070;16.998;2022-07-06T12:07:04;23.20;88.30
2907;DHT22;1463;51.070;16.998;2022-07-06T12:09:37;23.40;91.70
2907;DHT22;1463;51.070;16.998;2022-07-06T12:12:05;23.70;91.10
2907;DHT22;1463;51.070;16.998;2022-07-06T12:14:35;23.80;90.80
2907;DHT22;1463;51.070;16.998;2022-07-06T12:17:04;23.80;90.00
2907;DHT22;1463;51.070;16.998;2022-07-06T12:19:32;23.70;87.80
2907;DHT22;1463;51.070;16.998;2022-07-06T12:22:01;23.70;89.00
2907;DHT22;1463;51.070;16.998;2022-07-06T12:24:31;23.60;89.90
2907;DHT22;1463;51.070;16.998;2022-07-06T12:27:09;23.70;86.30
2907;DHT22;1463;51.070;16.998;2022-07-06T12:29:42;23.70;88.20
2907;DHT22;1463;51.070;16.998;2022-07-06T12:32:13;23.60;85.60
2907;DHT22;1463;51.070;16.998;2022-07-06T12:34:44;23.60;86.40
2907;DHT22;1463;51.070;16.998;2022-07-06T12:37:12;23.60;85.10
2907;DHT22;1463;51.070;16.998;2022-07-06T12:39:42;23.50;84.90
2907;DHT22;1463;51.070;16.998;2022-07-06T12:42:13;23.50;84.20
2907;DHT22;1463;51.070;16.998;2022-07-06T12:44:45;23.40;82.90
2907;DHT22;1463;51.070;16.998;2022-07-06T12:47:17;23.50;84.20
2907;DHT22;1463;51.070;16.998;2022-07-06T12:49:47;23.50;82.70
2907;DHT22;1463;51.070;16.998;2022-07-06T12:52:16;23.50;82.00
2907;DHT22;1463;51.070;16.998;2022-07-06T12:54:45;23.60;81.10
2907;DHT22;1463;51.070;16.998;2022-07-06T12:57:16;23.50;79.10
2907;DHT22;1463;51.070;16.998;2022-07-06T12:59:45;23.40;78.10
2907;DHT22;1463;51.070;16.998;2022-07-06T13:02:19;23.40;78.40
2907;DHT22;1463;51.070;16.998;2022-07-06T13:04:58;23.40;77.40
2907;DHT22;1463;51.070;16.998;2022-07-06T13:07:27;23.50;78.10
2907;DHT22;1463;51.070;16.998;2022-07-06T13:09:59;23.50;78.10
2907;DHT22;1463;51.070;16.998;2022-07-06T13:12:32;23.50;78.20
2907;DHT22;1463;51.070;16.998;2022-07-06T13:15:00;23.60;78.00
2907;DHT22;1463;51.070;16.998;2022-07-06T13:17:29;23.70;78.50
2907;DHT22;1463;51.070;16.998;2022-07-06T13:19:58;23.80;78.40
2907;DHT22;1463;51.070;16.998;2022-07-06T13:22:26;23.80;77.60
2907;DHT22;1463;51.070;16.998;2022-07-06T13:24:54;23.80;78.00
2907;DHT22;1463;51.070;16.998;2022-07-06T13:27:23;23.70;78.90
2907;DHT22;1463;51.070;16.998;2022-07-06T13:29:53;23.70;77.80
2907;DHT22;1463;51.070;16.998;2022-07-06T13:32:22;23.60;77.50
2907;DHT22;1463;51.070;16.998;2022-07-06T13:34:51;23.60;77.50
2907;DHT22;1463;51.070;16.998;2022-07-06T13:37:19;23.60;76.80
2907;DHT22;1463;51.070;16.998;2022-07-06T13:39:52;23.70;77.00
2907;DHT22;1463;51.070;16.998;2022-07-06T13:42:20;23.60;76.60
2907;DHT22;1463;51.070;16.998;2022-07-06T13:44:48;23.60;76.50
2907;DHT22;1463;51.070;16.998;2022-07-06T13:47:21;23.70;76.50
2907;DHT22;1463;51.070;16.998;2022-07-06T13:49:49;23.70;76.20
2907;DHT22;1463;51.070;16.998;2022-07-06T13:52:18;23.80;76.20
2907;DHT22;1463;51.070;16.998;2022-07-06T13:54:47;23.90;78.10
2907;DHT22;1463;51.070;16.998;2022-07-06T13:57:15;24.00;77.80
2907;DHT22;1463;51.070;16.998;2022-07-06T13:59:43;24.00;75.30
2907;DHT22;1463;51.070;16.998;2022-07-06T14:02:13;24.00;75.00
2907;DHT22;1463;51.070;16.998;2022-07-06T14:04:43;24.00;77.20
2907;DHT22;1463;51.070;16.998;2022-07-06T14:07:12;24.00;75.30
2907;DHT22;1463;51.070;16.998;2022-07-06T14:09:43;24.10;78.10
2907;DHT22;1463;51.070;16.998;2022-07-06T14:12:11;24.20;75.60
2907;DHT22;1463;51.070;16.998;2022-07-06T14:14:40;24.10;78.30
2907;DHT22;1463;51.070;16.998;2022-07-06T14:17:08;24.10;73.90
2907;DHT22;1463;51.070;16.998;2022-07-06T14:19:37;24.00;72.90
2907;DHT22;1463;51.070;16.998;2022-07-06T14:22:24;24.00;72.50
2907;DHT22;1463;51.070;16.998;2022-07-06T14:24:52;24.10;73.30
2907;DHT22;1463;51.070;16.998;2022-07-06T14:27:21;24.20;69.90
2907;DHT22;1463;51.070;16.998;2022-07-06T14:29:49;24.20;72.20
2907;DHT22;1463;51.070;16.998;2022-07-06T14:32:18;24.40;71.70
2907;DHT22;1463;51.070;16.998;2022-07-06T14:34:46;24.40;70.90
2907;DHT22;1463;51.070;16.998;2022-07-06T14:37:15;24.40;70.90
2907;DHT22;1463;51.070;16.998;2022-07-06T14:39:45;24.50;71.80
2907;DHT22;1463;51.070;16.998;2022-07-06T14:42:15;24.40;70.80
2907;DHT22;1463;51.070;16.998;2022-07-06T14:44:43;24.40;70.40
2907;DHT22;1463;51.070;16.998;2022-07-06T14:47:11;24.40;70.80
2907;DHT22;1463;51.070;16.998;2022-07-06T14:49:42;24.40;71.50
2907;DHT22;1463;51.070;16.998;2022-07-06T14:52:11;24.40;71.90
2907;DHT22;1463;51.070;16.998;2022-07-06T14:54:40;24.40;70.90
2907;DHT22;1463;51.070;16.998;2022-07-06T14:57:09;24.30;69.50
2907;DHT22;1463;51.070;16.998;2022-07-06T14:59:38;24.20;69.10
2907;DHT22;1463;51.070;16.998;2022-07-06T15:02:07;24.10;69.60
2907;DHT22;1463;51.070;16.998;2022-07-06T15:04:35;24.10;69.70
2907;DHT22;1463;51.070;16.998;2022-07-06T15:07:03;24.10;70.50
2907;DHT22;1463;51.070;16.998;2022-07-06T15:09:30;24.10;70.10
2907;DHT22;1463;51.070;16.998;2022-07-06T15:11:58;24.10;70.30
2907;DHT22;1463;51.070;16.998;2022-07-06T15:14:27;24.10;71.60
2907;DHT22;1463;51.070;16.998;2022-07-06T15:16:54;24.10;71.20
2907;DHT22;1463;51.070;16.998;2022-07-06T15:19:22;24.00;70.30
2907;DHT22;1463;51.070;16.998;2022-07-06T15:21:49;23.90;70.70
2907;DHT22;1463;51.070;16.998;2022-07-06T15:24:16;23.80;70.80
2907;DHT22;1463;51.070;16.998;2022-07-06T15:26:43;23.80;71.60
2907;DHT22;1463;51.070;16.998;2022-07-06T15:29:10;23.80;70.00
2907;DHT22;1463;51.070;16.998;2022-07-06T15:31:39;23.80;69.40
2907;DHT22;1463;51.070;16.998;2022-07-06T15:34:06;23.80;69.70
2907;DHT22;1463;51.070;16.998;2022-07-06T15:36:33;23.90;69.00
2907;DHT22;1463;51.070;16.998;2022-07-06T15:39:01;23.90;67.80
2907;DHT22;1463;51.070;16.998;2022-07-06T15:41:28;23.90;68.60
2907;DHT22;1463;51.070;16.998;2022-07-06T15:43:57;23.90;69.40
2907;DHT22;1463;51.070;16.998;2022-07-06T15:46:25;23.90;68.50
2907;DHT22;1463;51.070;16.998;2022-07-06T15:48:54;23.90;69.70
2907;DHT22;1463;51.070;16.998;2022-07-06T15:51:21;23.90;68.80
2907;DHT22;1463;51.070;16.998;2022-07-06T15:53:49;23.90;68.60
2907;DHT22;1463;51.070;16.998;2022-07-06T15:56:16;23.90;68.30
2907;DHT22;1463;51.070;16.998;2022-07-06T15:58:43;23.80;68.40
2907;DHT22;1463;51.070;16.998;2022-07-06T16:01:11;23.90;68.20
2907;DHT22;1463;51.070;16.998;2022-07-06T16:03:38;23.90;68.90
2907;DHT22;1463;51.070;16.998;2022-07-06T16:06:07;24.00;67.90
2907;DHT22;1463;51.070;16.998;2022-07-06T16:08:34;24.00;68.60
2907;DHT22;1463;51.070;16.998;2022-07-06T16:11:02;24.00;67.60